Weather at Aurora Memorial Hospital of Burlington Heliport

Public forecast

Using degrees Fahrenheit for public forecast. Weather courtesy of forecast.io.

Closest aviation weather report (METAR) to Aurora Memorial Hospital of Burlington Heliport

Closest report is Burlington Municipal Airport, 1.4 nm (2.7 km) NW. Retrieved 2021/06/23 00:55 UTC (27 minutes ago):

KBUU 230055Z AUTO 00000KT 10SM 18/11 A2994 RMK AO2 T01820114 PWINO

Closest aviation forecast (TAF) to Aurora Memorial Hospital of Burlington Heliport

Closest forecast is Kenosha Regional Airport, 16.3 nm (30.2 km) ESE. Retrieved 2021-06-23 00:33 UTC (49 minutes ago):

TAF KENW 222330Z 2300/2324 VRB05KT P6SM BKN080 TEMPO 2300/2302 16005KT SCT080 FM230700 15008KT P6SM VCSH BKN070 FM231200 18009KT P6SM VCSH BKN050 TEMPO 2312/2316 4SM -SHRA BKN030 FM231800 20014G24KT P6SM BKN080